createdAt,value
2023-05-16T00:01:05.386Z,61.32
2023-05-16T00:06:07.987Z,61.25
2023-05-16T00:11:10.541Z,61.17
2023-05-16T00:16:14.599Z,60.97
2023-05-16T00:21:17.285Z,60.66
2023-05-16T00:26:20.294Z,60.32
2023-05-16T00:31:23.241Z,60.45
2023-05-16T00:36:25.965Z,60.40
2023-05-16T00:41:28.604Z,60.29
2023-05-16T00:46:31.159Z,60.25
2023-05-16T00:51:34.093Z,60.20
2023-05-16T00:56:36.934Z,59.94
2023-05-16T01:01:41.435Z,60.09
2023-05-16T01:06:44.739Z,60.28
2023-05-16T01:11:55.925Z,60.18
2023-05-16T01:17:12.632Z,60.04
2023-05-16T01:22:37.418Z,60.02
2023-05-16T01:27:40.869Z,59.79
2023-05-16T01:32:43.776Z,63.62
2023-05-16T01:38:00.887Z,65.67
2023-05-16T01:43:08.619Z,63.21
2023-05-16T01:48:17.974Z,62.45
2023-05-16T01:53:29.590Z,61.78
2023-05-16T01:58:33.898Z,61.68
2023-05-16T02:03:36.448Z,61.33
2023-05-16T02:08:39.070Z,61.22
2023-05-16T02:13:42.603Z,61.02
2023-05-16T02:18:45.837Z,60.85
2023-05-16T02:23:48.464Z,60.55
2023-05-16T02:28:51.203Z,60.41
2023-05-16T02:33:53.752Z,60.23
2023-05-16T02:38:56.297Z,60.43
2023-05-16T02:43:58.798Z,60.25
2023-05-16T02:49:01.884Z,60.20
2023-05-16T02:54:04.687Z,60.24
2023-05-16T02:59:07.565Z,60.17
2023-05-16T03:04:10.191Z,59.90
2023-05-16T03:09:12.752Z,60.05
2023-05-16T03:14:15.263Z,59.97
2023-05-16T03:19:17.860Z,59.97
2023-05-16T03:24:22.882Z,59.71
2023-05-16T03:29:27.104Z,59.02
2023-05-16T03:34:29.647Z,64.17
2023-05-16T03:39:32.148Z,65.46
2023-05-16T03:44:34.646Z,62.76
2023-05-16T03:49:37.422Z,61.79
2023-05-16T03:54:40.021Z,60.98
2023-05-16T03:59:42.838Z,60.18
2023-05-16T04:04:45.832Z,59.80
2023-05-16T04:09:48.440Z,59.69
2023-05-16T04:14:50.978Z,59.56
2023-05-16T04:19:53.517Z,59.94
2023-05-16T04:24:57.053Z,66.07
2023-05-16T04:29:59.861Z,64.74
2023-05-16T04:35:02.851Z,63.16
2023-05-16T04:40:07.697Z,62.64
2023-05-16T04:45:14.597Z,62.38
2023-05-16T04:50:18.131Z,62.11
2023-05-16T04:55:20.844Z,62.06
2023-05-16T05:00:23.593Z,61.87
2023-05-16T05:05:26.364Z,61.96
2023-05-16T05:10:31.088Z,61.83
2023-05-16T05:15:33.710Z,63.08
2023-05-16T05:20:36.272Z,63.03
2023-05-16T05:25:39.415Z,62.48
2023-05-16T05:30:43.184Z,62.85
2023-05-16T05:35:46.000Z,62.75
2023-05-16T05:40:49.617Z,62.93
2023-05-16T05:45:52.368Z,62.15
2023-05-16T05:50:54.954Z,62.18
2023-05-16T05:55:57.451Z,62.28
2023-05-16T06:01:00.042Z,61.34
2023-05-16T06:06:03.947Z,60.96
2023-05-16T06:11:07.399Z,60.26
2023-05-16T06:16:09.986Z,59.43
2023-05-16T06:21:12.624Z,63.98
2023-05-16T06:26:15.767Z,62.01
2023-05-16T06:31:18.339Z,60.06
2023-05-16T06:36:21.098Z,60.14
2023-05-16T06:41:23.718Z,64.16
2023-05-16T06:46:26.346Z,62.39
2023-05-16T06:51:29.063Z,61.27
2023-05-16T06:56:32.809Z,60.52
2023-05-16T07:01:35.450Z,59.68
2023-05-16T07:06:38.355Z,61.47
2023-05-16T07:11:41.060Z,63.65
2023-05-16T07:16:44.141Z,60.93
2023-05-16T07:21:46.884Z,60.06
2023-05-16T07:26:50.202Z,58.75
2023-05-16T07:31:52.945Z,62.59
2023-05-16T07:36:55.716Z,62.69
2023-05-16T07:41:58.478Z,58.95
2023-05-16T07:47:01.104Z,59.28
2023-05-16T07:52:04.065Z,63.59
2023-05-16T07:57:07.409Z,60.43
2023-05-16T08:02:11.245Z,59.08
2023-05-16T08:07:13.924Z,62.46
2023-05-16T08:12:16.551Z,63.82
2023-05-16T08:17:19.145Z,58.78
2023-05-16T08:22:21.747Z,61.27
2023-05-16T08:27:24.679Z,61.65
2023-05-16T08:32:27.451Z,59.48
2023-05-16T08:37:30.112Z,63.23
2023-05-16T08:42:34.040Z,61.29
2023-05-16T08:47:41.601Z,58.58
2023-05-16T08:52:47.247Z,61.36
2023-05-16T08:57:53.483Z,60.76
2023-05-16T09:02:56.593Z,58.53
2023-05-16T09:08:00.657Z,62.69
2023-05-16T09:13:05.515Z,61.51
2023-05-16T09:18:16.603Z,58.50
2023-05-16T09:23:25.700Z,62.57
2023-05-16T09:28:28.817Z,59.76
2023-05-16T09:33:31.688Z,57.94
2023-05-16T09:38:34.298Z,60.17
2023-05-16T09:43:41.802Z,61.04
2023-05-16T09:48:46.686Z,61.13
2023-05-16T09:53:49.621Z,57.17
2023-05-16T09:58:52.611Z,58.01
2023-05-16T10:03:55.831Z,59.50
2023-05-16T10:09:00.548Z,60.37
2023-05-16T10:14:07.953Z,61.39
2023-05-16T10:19:11.656Z,61.12
2023-05-16T10:24:22.400Z,57.20
2023-05-16T10:29:26.112Z,56.51
2023-05-16T10:34:29.390Z,55.33
2023-05-16T10:39:32.358Z,56.00
2023-05-16T10:44:38.661Z,57.45
2023-05-16T10:49:41.876Z,56.93
2023-05-16T10:54:54.041Z,56.89
2023-05-16T11:00:01.666Z,56.50
2023-05-16T11:05:06.784Z,55.46
2023-05-16T11:10:14.673Z,55.38
2023-05-16T11:15:28.903Z,56.49
2023-05-16T11:20:34.391Z,58.04
2023-05-16T11:25:41.129Z,59.77
2023-05-16T11:30:46.261Z,60.73
2023-05-16T11:41:16.875Z,58.47
2023-05-16T11:46:21.554Z,55.75
2023-05-16T11:51:24.462Z,55.38
2023-05-16T11:56:27.648Z,56.02
2023-05-16T12:01:35.475Z,55.81
2023-05-16T12:06:38.679Z,56.98
2023-05-16T12:11:43.504Z,58.02
2023-05-16T12:16:46.679Z,58.90
2023-05-16T12:21:53.370Z,59.38
2023-05-16T12:26:57.516Z,59.92
2023-05-16T12:32:00.239Z,58.45
2023-05-16T12:37:03.101Z,55.79
2023-05-16T12:42:07.346Z,54.65
2023-05-16T12:47:14.402Z,53.97
2023-05-16T12:52:21.500Z,55.53
2023-05-16T12:57:24.143Z,55.00
2023-05-16T13:02:26.863Z,54.77
2023-05-16T13:07:30.698Z,52.99
2023-05-16T13:12:33.622Z,52.44
2023-05-16T13:17:37.486Z,52.97
2023-05-16T13:22:44.832Z,53.70
2023-05-16T13:27:49.489Z,54.66
2023-05-16T13:32:52.780Z,54.18
2023-05-16T13:37:56.029Z,53.42
2023-05-16T13:42:58.809Z,51.64
2023-05-16T13:48:01.806Z,51.11
2023-05-16T13:53:04.498Z,51.13
2023-05-16T13:58:07.137Z,52.77
2023-05-16T14:03:09.910Z,53.33
2023-05-16T14:08:14.375Z,53.92
2023-05-16T14:13:17.045Z,55.09
2023-05-16T14:18:20.012Z,55.79
2023-05-16T14:23:25.909Z,57.73
2023-05-16T14:28:28.726Z,58.20
2023-05-16T14:33:32.940Z,58.49
2023-05-16T14:38:36.055Z,58.42
2023-05-16T14:43:38.965Z,58.38
2023-05-16T14:48:41.645Z,58.82
2023-05-16T14:53:46.617Z,58.22
2023-05-16T14:58:49.805Z,57.44
2023-05-16T15:03:55.974Z,57.22
2023-05-16T15:08:59.110Z,56.92
2023-05-16T15:14:02.017Z,55.86
2023-05-16T15:19:04.851Z,53.74
2023-05-16T15:24:08.296Z,53.25
2023-05-16T15:29:11.443Z,50.87
2023-05-16T15:34:14.157Z,50.80
2023-05-16T15:39:16.795Z,49.56
2023-05-16T15:44:19.374Z,48.98
2023-05-16T15:49:22.160Z,49.10
2023-05-16T15:54:24.781Z,47.36
2023-05-16T15:59:27.440Z,46.10
2023-05-16T16:04:30.059Z,44.88
2023-05-16T16:09:32.690Z,44.19
2023-05-16T16:14:35.301Z,42.77
2023-05-16T16:19:37.935Z,43.33
2023-05-16T16:24:40.923Z,44.54
2023-05-16T16:29:43.553Z,46.97
2023-05-16T16:34:46.128Z,48.64
2023-05-16T16:39:48.749Z,50.01
2023-05-16T16:44:55.327Z,51.40
2023-05-16T16:49:58.651Z,52.10
2023-05-16T16:55:01.391Z,53.82
2023-05-16T17:00:07.306Z,55.33
2023-05-16T17:05:10.533Z,57.22
2023-05-16T17:10:13.205Z,58.29
2023-05-16T17:15:17.495Z,59.93
2023-05-16T17:20:20.264Z,59.82
2023-05-16T17:25:23.096Z,62.08
2023-05-16T17:30:26.278Z,63.50
2023-05-16T17:35:29.358Z,57.32
2023-05-16T17:40:32.661Z,59.91
2023-05-16T17:45:35.390Z,61.97
2023-05-16T17:50:38.040Z,61.59
2023-05-16T17:55:40.728Z,58.32
2023-05-16T18:00:48.488Z,61.33
2023-05-16T18:05:51.802Z,61.79
2023-05-16T18:10:55.685Z,59.11
2023-05-16T18:15:58.376Z,62.53
2023-05-16T18:21:01.115Z,61.34
2023-05-16T18:26:03.840Z,58.86
2023-05-16T18:31:06.933Z,63.66
2023-05-16T18:36:10.408Z,60.47
2023-05-16T18:41:13.079Z,58.50
2023-05-16T18:46:15.672Z,62.76
2023-05-16T18:51:18.618Z,61.76
2023-05-16T18:56:22.438Z,59.02
2023-05-16T19:01:25.574Z,63.46
2023-05-16T19:06:28.340Z,62.09
2023-05-16T19:11:30.991Z,59.09
2023-05-16T19:16:34.243Z,63.32
2023-05-16T19:21:38.022Z,61.63
2023-05-16T19:26:40.773Z,59.17
2023-05-16T19:31:43.420Z,63.72
2023-05-16T19:36:46.858Z,62.79
2023-05-16T19:41:52.296Z,59.73
2023-05-16T19:46:55.073Z,59.83
2023-05-16T19:51:57.854Z,64.93
2023-05-16T19:57:00.541Z,61.34
2023-05-16T20:02:04.325Z,59.71
2023-05-16T20:07:07.512Z,63.96
2023-05-16T20:12:10.237Z,61.61
2023-05-16T20:17:12.939Z,59.08
2023-05-16T20:22:15.745Z,63.19
2023-05-16T20:27:18.380Z,61.89
2023-05-16T20:32:21.318Z,60.03
2023-05-16T20:37:26.839Z,64.48
2023-05-16T20:42:29.671Z,62.50
2023-05-16T20:47:32.338Z,59.09
2023-05-16T20:52:34.980Z,63.56
2023-05-16T20:57:37.623Z,62.59
2023-05-16T21:02:42.892Z,59.73
2023-05-16T21:07:46.729Z,60.20
2023-05-16T21:12:51.262Z,63.82
2023-05-16T21:17:53.916Z,61.49
2023-05-16T21:22:57.274Z,60.28
2023-05-16T21:28:00.540Z,63.22
2023-05-16T21:33:03.286Z,60.34
2023-05-16T21:38:06.349Z,59.32
2023-05-16T21:43:08.983Z,63.80
2023-05-16T21:48:12.042Z,60.98
2023-05-16T21:53:14.803Z,59.00
2023-05-16T21:58:19.159Z,62.94
2023-05-16T22:03:24.486Z,63.08
2023-05-16T22:08:27.142Z,59.51
2023-05-16T22:13:29.753Z,57.96
2023-05-16T22:18:33.368Z,60.78
2023-05-16T22:23:36.402Z,64.50
2023-05-16T22:28:39.018Z,61.37
2023-05-16T22:33:41.753Z,57.20
2023-05-16T22:38:44.471Z,60.06
2023-05-16T22:43:47.141Z,63.88
2023-05-16T22:48:49.849Z,61.22
2023-05-16T22:53:52.467Z,56.98
2023-05-16T22:58:55.173Z,57.01
2023-05-16T23:03:57.862Z,59.98
2023-05-16T23:09:00.781Z,63.95
2023-05-16T23:14:03.378Z,60.03
2023-05-16T23:19:09.124Z,58.68
2023-05-16T23:24:12.174Z,61.58
2023-05-16T23:29:14.768Z,68.76
2023-05-16T23:34:17.358Z,66.25
2023-05-16T23:39:21.373Z,62.46
2023-05-16T23:44:23.952Z,60.68
2023-05-16T23:49:26.724Z,58.23
2023-05-16T23:54:29.531Z,60.71
2023-05-16T23:59:32.125Z,65.28
